• Join FlightAware (Why Join?)
  • Login
  • US Flag 
01:22AM EDT


 

Airport Tracker/Info


-or-


 

Live Flight TrackerFlight Track Log ✈ GGN7280 ✈ 04-Jul-2013 ✈ CYYZ - KALB

Flight Track Log - Related Links

Times and Time Zones

All times are in EDT time to prevent confusion due to time zone crossing. See the GGN7280 flight status page for this flight to view local times or setup timezone preferences in your user account.

Time Position Orientation Groundspeed Altitude Reporting Facility
EDT Latitude Longitude Course Direction KTS MPH feet Rate Location/Type
09:36AM 43.6667 -79.5833 206° Southwest 70 81 800  Level Toronto Center
09:37AM 43.6167 -79.6167 206° Southwest 160 184 2,300 1,500 Climbing Toronto Center
09:38AM 43.5833 -79.5833 144° Southeast 160 184 3,800 1,380 Climbing Toronto Center
09:39AM 43.5500 -79.5167 125° Southeast 200 230 5,100 1,260 Climbing Toronto Center
09:40AM 43.5333 -79.4500 109° East 210 242 6,400 1,200 Climbing Toronto Center
09:41AM 43.5167 -79.3500 103° East 220 253 7,600 780 Climbing Toronto Center
09:42AM 43.5167 -79.2667 90° East 240 276 8,000 180 Climbing Toronto Center
09:43AM 43.5000 -79.1500 101° East 270 311 8,000  Level Toronto Center
09:44AM 43.4833 -79.0667 105° East 270 311 8,000  Level Toronto Center
09:45AM 43.4833 -78.9500 90° East 270 311 8,000 780 Level Toronto Center
09:46AM 43.4667 -78.8500 103° East 250 288 9,600 1,440 Climbing Toronto Center
09:47AM 43.4500 -78.7667 105° East 230 265 10,900 1,260 Climbing Toronto Center
09:48AM 43.4500 -78.6833 90° East 230 265 12,200 1,260 Climbing Toronto Center
09:49AM 43.4333 -78.6000 105° East 230 265 13,500 1,320 Climbing Toronto Center
09:50AM 43.4333 -78.5000 90° East 230 265 14,900 1,380 Climbing Toronto Center
09:51AM 43.4000 -78.4167 119° Southeast 230 265 16,300 1,320 Climbing Toronto Center
09:52AM 43.4000 -78.3167 90° East 230 265 17,600 1,020 Climbing Toronto Center
09:53AM 43.4047 -78.2944 74° East 231 266 18,200 720 Climbing Cleveland Center
09:54AM 43.3903 -78.2008 102° East 236 272 19,000 360 Climbing Cleveland Center
09:55AM 43.3753 -78.0869 100° East 255 293 19,000  Level Cleveland Center
09:56AM 43.3603 -77.9733 100° East 278 320 19,000  Level Cleveland Center
09:57AM 43.3450 -77.8569 100° East 300 345 19,000  Level Cleveland Center
09:58AM 43.3319 -77.7378 99° East 306 352 19,000  Level Cleveland Center
09:59AM 43.3164 -77.6214 100° East 306 352 19,000  Level Cleveland Center
10:00AM 43.2989 -77.5081 102° East 311 358 19,000  Level Cleveland Center
10:01AM 43.2853 -77.3919 99° East 311 358 19,000  Level Cleveland Center
10:03AM 43.2614 -77.2139 100° East 308 354 19,000  Level Boston Center
10:03AM 43.2333 -77.1167 112° Southeast 300 345 19,000  Level Toronto Center
10:04AM 43.2167 -77.0000 101° East 300 345 19,000  Level Toronto Center
10:05AM 43.2167 -76.8833 90° East 300 345 19,000  Level Toronto Center
10:06AM 43.2000 -76.7667 101° East 310 357 19,000  Level Toronto Center
10:07AM 43.1667 -76.6667 115° Southeast 310 357 19,000  Level Toronto Center
10:08AM 43.1500 -76.5500 101° East 310 357 19,000  Level Toronto Center
10:09AM 43.1333 -76.4333 101° East 300 345 19,000  Level Toronto Center
10:10AM 43.1333 -76.3167 90° East 300 345 19,000  Level Toronto Center
10:11AM 43.1336 -76.2900 89° East 298 343 19,000  Level Boston Center
10:12AM 43.1164 -76.1781 102° East 298 343 19,000  Level Boston Center
10:13AM 43.0992 -76.0658 102° East 298 343 19,000  Level Boston Center
10:14AM 43.0819 -75.9511 102° East 298 343 19,000  Level Boston Center
10:15AM 43.0669 -75.8339 100° East 298 343 19,000  Level Boston Center
10:16AM 43.0494 -75.7192 102° East 298 343 19,000  Level Boston Center
10:17AM 43.0317 -75.6072 102° East 298 343 19,000  Level Boston Center
10:18AM 43.0139 -75.4900 102° East 298 343 19,000  Level Boston Center
10:19AM 42.9961 -75.3756 102° East 298 343 19,000  Level Boston Center
10:20AM 42.9781 -75.2667 103° East 298 343 19,000 -240 Level Boston Center
10:21AM 42.9625 -75.1383 99° East 305 351 18,600 -600 Descending Boston Center
10:22AM 42.9422 -75.0211 103° East 305 351 17,900 -720 Descending Boston Center
10:23AM 42.9281 -74.9072 100° East 331 381 17,300 -960 Descending Boston Center
10:24AM 42.9061 -74.7644 102° East 333 383 15,900 -1,320 Descending Boston Center
10:25AM 42.8836 -74.6389 104° East 336 387 14,400 -1,740 Descending Boston Center
10:26AM 42.8667 -74.5336 102° East 319 367 12,600 -1,860 Descending Boston Center
10:27AM 42.8686 -74.4231 89° East 297 342 10,900 -1,560 Descending Boston Center
10:28AM 42.8772 -74.2931 85° East 310 357 9,500 -1,380 Descending Boston Center
10:29AM 42.8828 -74.1969 85° East 311 358 8,300 -1,560 Descending Boston Center
10:30AM 42.8869 -74.0667 87° East 295 339 6,400 -1,620 Descending Boston Center
10:31AM 42.8903 -73.9647 87° East 261 300 4,900 -1,560 Descending Boston Center
10:32AM 42.8958 -73.8600 86° East 255 293 3,200 -1,200 Descending Boston Center
10:33AM 42.8697 -73.7858 116° Southeast 246 283 2,400 -1,020 Descending Boston Center
10:34AM 42.8172 -73.8100 199° South 152 175 1,400 -960 Descending Boston Center
10:35AM 42.7778 -73.8092 179° South 128 147 700 -720 Descending Boston Center
10:39AM 42.7491 -73.8020 North  Level Estimated
10:46AM 42.7491 -73.8020 North  Level Estimated